sensor_id;sensor_type;location;lat;lon;timestamp;P1;durP1;ratioP1;P2;durP2;ratioP2
23800;SDS011;12081;48.614;10.226;2023-04-04T00:02:05;3.87;;;1.63;;
23800;SDS011;12081;48.614;10.226;2023-04-04T00:04:50;2.27;;;1.70;;
23800;SDS011;12081;48.614;10.226;2023-04-04T00:07:35;3.30;;;1.90;;
23800;SDS011;12081;48.614;10.226;2023-04-04T00:10:19;2.97;;;1.90;;
23800;SDS011;12081;48.614;10.226;2023-04-04T00:13:04;2.37;;;1.83;;
23800;SDS011;12081;48.614;10.226;2023-04-04T00:15:48;2.47;;;1.60;;
23800;SDS011;12081;48.614;10.226;2023-04-04T00:18:32;7.63;;;3.07;;
23800;SDS011;12081;48.614;10.226;2023-04-04T00:21:16;2.60;;;1.87;;
23800;SDS011;12081;48.614;10.226;2023-04-04T00:24:00;4.50;;;1.83;;
23800;SDS011;12081;48.614;10.226;2023-04-04T00:26:44;3.80;;;1.63;;
23800;SDS011;12081;48.614;10.226;2023-04-04T00:29:28;3.23;;;1.80;;
23800;SDS011;12081;48.614;10.226;2023-04-04T00:32:12;3.60;;;2.10;;
23800;SDS011;12081;48.614;10.226;2023-04-04T00:34:56;4.17;;;1.63;;
23800;SDS011;12081;48.614;10.226;2023-04-04T00:37:41;2.57;;;1.73;;
23800;SDS011;12081;48.614;10.226;2023-04-04T00:40:25;5.53;;;1.77;;
23800;SDS011;12081;48.614;10.226;2023-04-04T00:43:09;5.77;;;1.80;;
23800;SDS011;12081;48.614;10.226;2023-04-04T00:45:54;2.60;;;1.70;;
23800;SDS011;12081;48.614;10.226;2023-04-04T00:48:39;1.60;;;1.30;;
23800;SDS011;12081;48.614;10.226;2023-04-04T00:51:24;6.80;;;1.60;;
23800;SDS011;12081;48.614;10.226;2023-04-04T00:54:08;4.13;;;1.77;;
23800;SDS011;12081;48.614;10.226;2023-04-04T00:56:53;2.30;;;1.77;;
23800;SDS011;12081;48.614;10.226;2023-04-04T00:59:37;2.40;;;1.50;;
23800;SDS011;12081;48.614;10.226;2023-04-04T01:02:22;2.80;;;1.83;;
23800;SDS011;12081;48.614;10.226;2023-04-04T01:05:07;3.73;;;1.60;;
23800;SDS011;12081;48.614;10.226;2023-04-04T01:07:52;4.97;;;1.67;;
23800;SDS011;12081;48.614;10.226;2023-04-04T01:10:36;3.37;;;2.20;;
23800;SDS011;12081;48.614;10.226;2023-04-04T01:13:21;3.17;;;1.93;;
23800;SDS011;12081;48.614;10.226;2023-04-04T01:16:05;5.90;;;2.30;;
23800;SDS011;12081;48.614;10.226;2023-04-04T01:18:50;2.97;;;2.03;;
23800;SDS011;12081;48.614;10.226;2023-04-04T01:21:36;3.10;;;1.90;;
23800;SDS011;12081;48.614;10.226;2023-04-04T01:24:21;2.67;;;1.90;;
23800;SDS011;12081;48.614;10.226;2023-04-04T01:27:08;2.83;;;2.07;;
23800;SDS011;12081;48.614;10.226;2023-04-04T01:29:52;2.97;;;1.90;;
23800;SDS011;12081;48.614;10.226;2023-04-04T01:32:40;5.60;;;1.97;;
23800;SDS011;12081;48.614;10.226;2023-04-04T01:35:47;4.30;;;1.80;;
23800;SDS011;12081;48.614;10.226;2023-04-04T01:41:36;3.57;;;1.77;;
23800;SDS011;12081;48.614;10.226;2023-04-04T01:44:22;4.27;;;1.97;;
23800;SDS011;12081;48.614;10.226;2023-04-04T01:47:07;3.07;;;1.90;;
23800;SDS011;12081;48.614;10.226;2023-04-04T01:49:51;4.67;;;2.13;;
23800;SDS011;12081;48.614;10.226;2023-04-04T01:52:36;3.97;;;1.80;;
23800;SDS011;12081;48.614;10.226;2023-04-04T01:55:20;3.40;;;1.90;;
23800;SDS011;12081;48.614;10.226;2023-04-04T01:58:05;5.20;;;1.93;;
23800;SDS011;12081;48.614;10.226;2023-04-04T02:00:49;4.77;;;2.33;;
23800;SDS011;12081;48.614;10.226;2023-04-04T02:03:33;3.33;;;1.77;;
23800;SDS011;12081;48.614;10.226;2023-04-04T02:06:17;3.07;;;1.80;;
23800;SDS011;12081;48.614;10.226;2023-04-04T02:09:01;3.20;;;2.13;;
23800;SDS011;12081;48.614;10.226;2023-04-04T02:11:45;2.33;;;1.77;;
23800;SDS011;12081;48.614;10.226;2023-04-04T02:14:31;5.03;;;1.97;;
23800;SDS011;12081;48.614;10.226;2023-04-04T02:17:15;6.03;;;1.83;;
23800;SDS011;12081;48.614;10.226;2023-04-04T02:19:59;6.23;;;2.20;;
23800;SDS011;12081;48.614;10.226;2023-04-04T02:22:53;5.53;;;1.93;;
23800;SDS011;12081;48.614;10.226;2023-04-04T02:25:38;3.20;;;1.77;;
23800;SDS011;12081;48.614;10.226;2023-04-04T02:28:23;5.20;;;2.20;;
23800;SDS011;12081;48.614;10.226;2023-04-04T02:31:08;3.10;;;1.70;;
23800;SDS011;12081;48.614;10.226;2023-04-04T02:33:52;3.47;;;1.90;;
23800;SDS011;12081;48.614;10.226;2023-04-04T02:36:36;3.47;;;2.10;;
23800;SDS011;12081;48.614;10.226;2023-04-04T02:39:19;2.60;;;1.57;;
23800;SDS011;12081;48.614;10.226;2023-04-04T02:42:04;3.77;;;1.70;;
23800;SDS011;12081;48.614;10.226;2023-04-04T02:44:48;3.03;;;1.80;;
23800;SDS011;12081;48.614;10.226;2023-04-04T02:47:33;3.30;;;1.63;;
23800;SDS011;12081;48.614;10.226;2023-04-04T02:50:17;4.30;;;2.17;;
23800;SDS011;12081;48.614;10.226;2023-04-04T02:53:02;3.60;;;1.80;;
23800;SDS011;12081;48.614;10.226;2023-04-04T02:55:47;3.57;;;1.93;;
23800;SDS011;12081;48.614;10.226;2023-04-04T02:58:31;4.40;;;2.83;;
23800;SDS011;12081;48.614;10.226;2023-04-04T03:01:16;2.70;;;1.50;;
23800;SDS011;12081;48.614;10.226;2023-04-04T03:04:00;3.23;;;1.77;;
23800;SDS011;12081;48.614;10.226;2023-04-04T03:06:47;3.93;;;2.23;;
23800;SDS011;12081;48.614;10.226;2023-04-04T03:09:30;6.60;;;2.27;;
23800;SDS011;12081;48.614;10.226;2023-04-04T03:12:15;5.17;;;1.87;;
23800;SDS011;12081;48.614;10.226;2023-04-04T03:15:04;2.37;;;2.10;;
23800;SDS011;12081;48.614;10.226;2023-04-04T03:17:49;5.27;;;1.70;;
23800;SDS011;12081;48.614;10.226;2023-04-04T03:20:34;3.80;;;1.77;;
23800;SDS011;12081;48.614;10.226;2023-04-04T03:23:18;6.10;;;2.13;;
23800;SDS011;12081;48.614;10.226;2023-04-04T03:26:03;4.37;;;1.30;;
23800;SDS011;12081;48.614;10.226;2023-04-04T03:28:47;8.67;;;2.00;;
23800;SDS011;12081;48.614;10.226;2023-04-04T08:19:42;2.00;;;1.30;;
23800;SDS011;12081;48.614;10.226;2023-04-04T08:22:26;4.90;;;2.10;;
23800;SDS011;12081;48.614;10.226;2023-04-04T08:27:45;2.50;;;1.53;;
23800;SDS011;12081;48.614;10.226;2023-04-04T08:30:29;3.63;;;2.10;;
23800;SDS011;12081;48.614;10.226;2023-04-04T09:43:45;3.80;;;1.90;;
23800;SDS011;12081;48.614;10.226;2023-04-04T09:46:30;2.87;;;1.97;;
23800;SDS011;12081;48.614;10.226;2023-04-04T09:49:19;2.63;;;2.00;;
23800;SDS011;12081;48.614;10.226;2023-04-04T09:52:11;3.17;;;2.00;;
23800;SDS011;12081;48.614;10.226;2023-04-04T09:55:02;3.67;;;2.33;;
23800;SDS011;12081;48.614;10.226;2023-04-04T09:57:47;3.27;;;1.83;;
23800;SDS011;12081;48.614;10.226;2023-04-04T10:00:31;3.23;;;2.03;;
23800;SDS011;12081;48.614;10.226;2023-04-04T10:03:23;2.97;;;2.00;;
23800;SDS011;12081;48.614;10.226;2023-04-04T10:06:08;3.17;;;1.83;;
23800;SDS011;12081;48.614;10.226;2023-04-04T10:08:53;2.57;;;1.90;;
23800;SDS011;12081;48.614;10.226;2023-04-04T10:11:39;3.53;;;2.37;;
23800;SDS011;12081;48.614;10.226;2023-04-04T10:14:32;3.60;;;1.87;;
23800;SDS011;12081;48.614;10.226;2023-04-04T10:17:17;4.70;;;2.20;;
23800;SDS011;12081;48.614;10.226;2023-04-04T10:20:05;4.77;;;2.00;;
23800;SDS011;12081;48.614;10.226;2023-04-04T10:22:54;3.63;;;2.33;;
23800;SDS011;12081;48.614;10.226;2023-04-04T10:25:38;4.03;;;2.10;;
23800;SDS011;12081;48.614;10.226;2023-04-04T10:28:23;4.50;;;2.00;;
23800;SDS011;12081;48.614;10.226;2023-04-04T10:31:21;3.67;;;1.97;;
23800;SDS011;12081;48.614;10.226;2023-04-04T10:37:14;3.80;;;1.97;;
23800;SDS011;12081;48.614;10.226;2023-04-04T10:40:10;4.20;;;2.23;;
23800;SDS011;12081;48.614;10.226;2023-04-04T10:43:02;3.17;;;1.90;;
23800;SDS011;12081;48.614;10.226;2023-04-04T10:45:47;3.47;;;2.03;;
23800;SDS011;12081;48.614;10.226;2023-04-04T10:48:31;3.30;;;1.97;;
23800;SDS011;12081;48.614;10.226;2023-04-04T10:51:16;4.20;;;2.50;;
23800;SDS011;12081;48.614;10.226;2023-04-04T10:54:00;7.27;;;3.93;;
23800;SDS011;12081;48.614;10.226;2023-04-04T10:56:46;3.93;;;2.07;;
23800;SDS011;12081;48.614;10.226;2023-04-04T10:59:32;5.37;;;2.30;;
23800;SDS011;12081;48.614;10.226;2023-04-04T11:02:17;5.30;;;2.87;;
23800;SDS011;12081;48.614;10.226;2023-04-04T11:05:34;5.73;;;3.33;;
23800;SDS011;12081;48.614;10.226;2023-04-04T11:08:31;6.17;;;2.30;;
23800;SDS011;12081;48.614;10.226;2023-04-04T11:11:20;6.17;;;4.10;;
23800;SDS011;12081;48.614;10.226;2023-04-04T11:14:05;3.97;;;2.50;;
23800;SDS011;12081;48.614;10.226;2023-04-04T11:16:50;3.53;;;2.20;;
23800;SDS011;12081;48.614;10.226;2023-04-04T11:19:34;3.77;;;2.27;;
23800;SDS011;12081;48.614;10.226;2023-04-04T11:22:22;2.77;;;1.90;;
23800;SDS011;12081;48.614;10.226;2023-04-04T11:28:25;2.83;;;1.63;;
23800;SDS011;12081;48.614;10.226;2023-04-04T11:34:09;3.73;;;1.83;;
23800;SDS011;12081;48.614;10.226;2023-04-04T11:36:55;3.20;;;1.90;;
23800;SDS011;12081;48.614;10.226;2023-04-04T11:39:45;2.90;;;2.00;;
23800;SDS011;12081;48.614;10.226;2023-04-04T11:42:33;3.37;;;1.90;;
23800;SDS011;12081;48.614;10.226;2023-04-04T11:45:24;3.57;;;1.83;;
23800;SDS011;12081;48.614;10.226;2023-04-04T11:48:09;3.03;;;2.03;;
23800;SDS011;12081;48.614;10.226;2023-04-04T11:50:56;2.70;;;2.20;;
23800;SDS011;12081;48.614;10.226;2023-04-04T11:53:41;3.20;;;2.10;;
23800;SDS011;12081;48.614;10.226;2023-04-04T11:56:25;2.77;;;2.03;;
23800;SDS011;12081;48.614;10.226;2023-04-04T11:59:10;4.67;;;2.20;;
23800;SDS011;12081;48.614;10.226;2023-04-04T12:01:54;3.07;;;2.00;;
23800;SDS011;12081;48.614;10.226;2023-04-04T12:04:40;2.63;;;2.07;;
23800;SDS011;12081;48.614;10.226;2023-04-04T12:07:28;3.33;;;2.07;;
23800;SDS011;12081;48.614;10.226;2023-04-04T12:10:13;3.63;;;2.20;;
23800;SDS011;12081;48.614;10.226;2023-04-04T12:12:57;3.53;;;1.83;;
23800;SDS011;12081;48.614;10.226;2023-04-04T12:15:41;3.87;;;2.20;;
23800;SDS011;12081;48.614;10.226;2023-04-04T12:18:26;5.47;;;2.87;;
23800;SDS011;12081;48.614;10.226;2023-04-04T12:21:10;3.57;;;2.13;;
23800;SDS011;12081;48.614;10.226;2023-04-04T12:23:54;4.30;;;2.23;;
23800;SDS011;12081;48.614;10.226;2023-04-04T12:26:41;3.30;;;2.10;;
23800;SDS011;12081;48.614;10.226;2023-04-04T12:29:26;2.67;;;2.00;;
23800;SDS011;12081;48.614;10.226;2023-04-04T12:32:18;3.73;;;1.87;;
23800;SDS011;12081;48.614;10.226;2023-04-04T12:35:03;3.30;;;2.07;;
23800;SDS011;12081;48.614;10.226;2023-04-04T12:37:58;2.43;;;1.80;;
23800;SDS011;12081;48.614;10.226;2023-04-04T12:40:43;5.87;;;2.00;;
23800;SDS011;12081;48.614;10.226;2023-04-04T12:43:27;3.53;;;1.80;;
23800;SDS011;12081;48.614;10.226;2023-04-04T12:46:12;3.30;;;2.20;;
23800;SDS011;12081;48.614;10.226;2023-04-04T12:48:56;5.73;;;2.13;;
23800;SDS011;12081;48.614;10.226;2023-04-04T12:51:43;4.07;;;1.90;;
23800;SDS011;12081;48.614;10.226;2023-04-04T12:54:29;8.27;;;2.30;;
23800;SDS011;12081;48.614;10.226;2023-04-04T12:57:19;4.80;;;2.43;;
23800;SDS011;12081;48.614;10.226;2023-04-04T13:00:05;4.03;;;2.53;;
23800;SDS011;12081;48.614;10.226;2023-04-04T13:02:51;3.47;;;2.00;;
23800;SDS011;12081;48.614;10.226;2023-04-04T13:05:35;3.67;;;2.40;;
23800;SDS011;12081;48.614;10.226;2023-04-04T13:08:19;3.60;;;1.90;;
23800;SDS011;12081;48.614;10.226;2023-04-04T13:11:04;2.73;;;1.90;;
23800;SDS011;12081;48.614;10.226;2023-04-04T13:13:59;3.77;;;2.30;;
23800;SDS011;12081;48.614;10.226;2023-04-04T13:16:45;2.97;;;2.30;;
23800;SDS011;12081;48.614;10.226;2023-04-04T13:19:52;7.67;;;2.50;;
23800;SDS011;12081;48.614;10.226;2023-04-04T13:22:36;4.63;;;2.50;;
23800;SDS011;12081;48.614;10.226;2023-04-04T13:25:21;2.93;;;2.10;;
23800;SDS011;12081;48.614;10.226;2023-04-04T13:28:05;3.00;;;1.90;;
23800;SDS011;12081;48.614;10.226;2023-04-04T13:30:50;3.43;;;2.27;;
23800;SDS011;12081;48.614;10.226;2023-04-04T13:33:34;3.40;;;2.03;;
23800;SDS011;12081;48.614;10.226;2023-04-04T13:36:18;2.83;;;1.70;;
23800;SDS011;12081;48.614;10.226;2023-04-04T13:39:02;4.77;;;2.23;;
23800;SDS011;12081;48.614;10.226;2023-04-04T13:41:46;2.30;;;2.00;;
23800;SDS011;12081;48.614;10.226;2023-04-04T13:44:30;3.30;;;1.87;;
23800;SDS011;12081;48.614;10.226;2023-04-04T13:47:14;5.10;;;2.33;;
23800;SDS011;12081;48.614;10.226;2023-04-04T13:49:58;3.40;;;1.83;;
23800;SDS011;12081;48.614;10.226;2023-04-04T13:52:43;8.03;;;2.30;;
23800;SDS011;12081;48.614;10.226;2023-04-04T13:55:27;3.43;;;2.10;;
23800;SDS011;12081;48.614;10.226;2023-04-04T13:58:11;3.47;;;2.20;;
23800;SDS011;12081;48.614;10.226;2023-04-04T14:00:55;3.47;;;2.40;;
23800;SDS011;12081;48.614;10.226;2023-04-04T14:03:40;3.53;;;2.23;;
23800;SDS011;12081;48.614;10.226;2023-04-04T14:06:24;4.93;;;2.70;;
23800;SDS011;12081;48.614;10.226;2023-04-04T14:09:09;4.33;;;2.50;;
23800;SDS011;12081;48.614;10.226;2023-04-04T14:11:53;3.70;;;2.53;;
23800;SDS011;12081;48.614;10.226;2023-04-04T14:14:37;4.03;;;1.90;;
23800;SDS011;12081;48.614;10.226;2023-04-04T14:17:23;2.40;;;1.90;;
23800;SDS011;12081;48.614;10.226;2023-04-04T14:20:07;3.43;;;2.13;;
23800;SDS011;12081;48.614;10.226;2023-04-04T14:22:51;4.17;;;2.10;;
23800;SDS011;12081;48.614;10.226;2023-04-04T14:25:35;3.53;;;2.03;;
23800;SDS011;12081;48.614;10.226;2023-04-04T14:28:19;3.80;;;2.23;;
23800;SDS011;12081;48.614;10.226;2023-04-04T14:31:03;3.20;;;1.80;;
23800;SDS011;12081;48.614;10.226;2023-04-04T14:33:49;4.23;;;2.23;;
23800;SDS011;12081;48.614;10.226;2023-04-04T14:36:33;4.93;;;2.43;;
23800;SDS011;12081;48.614;10.226;2023-04-04T14:39:17;4.27;;;2.50;;
23800;SDS011;12081;48.614;10.226;2023-04-04T14:42:02;2.97;;;2.40;;
23800;SDS011;12081;48.614;10.226;2023-04-04T14:44:46;5.00;;;2.30;;
23800;SDS011;12081;48.614;10.226;2023-04-04T14:47:30;7.07;;;2.30;;
23800;SDS011;12081;48.614;10.226;2023-04-04T14:50:14;4.33;;;2.60;;
23800;SDS011;12081;48.614;10.226;2023-04-04T14:52:58;3.43;;;2.07;;
23800;SDS011;12081;48.614;10.226;2023-04-04T14:55:42;5.90;;;2.50;;
23800;SDS011;12081;48.614;10.226;2023-04-04T14:58:26;4.10;;;2.00;;
23800;SDS011;12081;48.614;10.226;2023-04-04T15:01:10;5.07;;;2.17;;
23800;SDS011;12081;48.614;10.226;2023-04-04T15:03:54;4.50;;;2.33;;
23800;SDS011;12081;48.614;10.226;2023-04-04T15:06:38;4.70;;;2.37;;
23800;SDS011;12081;48.614;10.226;2023-04-04T15:09:23;3.97;;;2.70;;
23800;SDS011;12081;48.614;10.226;2023-04-04T15:12:07;3.73;;;2.30;;
23800;SDS011;12081;48.614;10.226;2023-04-04T15:14:51;3.67;;;2.13;;
23800;SDS011;12081;48.614;10.226;2023-04-04T15:17:35;3.70;;;2.00;;
23800;SDS011;12081;48.614;10.226;2023-04-04T15:20:20;2.40;;;1.93;;
23800;SDS011;12081;48.614;10.226;2023-04-04T15:23:04;3.70;;;2.10;;
23800;SDS011;12081;48.614;10.226;2023-04-04T15:25:49;3.03;;;2.00;;
23800;SDS011;12081;48.614;10.226;2023-04-04T15:28:33;4.07;;;2.57;;
23800;SDS011;12081;48.614;10.226;2023-04-04T15:31:17;3.67;;;2.13;;
23800;SDS011;12081;48.614;10.226;2023-04-04T15:34:03;8.60;;;3.03;;
23800;SDS011;12081;48.614;10.226;2023-04-04T15:36:47;4.50;;;2.40;;
23800;SDS011;12081;48.614;10.226;2023-04-04T15:39:33;4.47;;;2.63;;
23800;SDS011;12081;48.614;10.226;2023-04-04T15:42:17;3.07;;;2.63;;
23800;SDS011;12081;48.614;10.226;2023-04-04T15:45:01;4.00;;;2.73;;
23800;SDS011;12081;48.614;10.226;2023-04-04T15:47:46;4.63;;;2.20;;
23800;SDS011;12081;48.614;10.226;2023-04-04T15:50:30;4.53;;;2.70;;
23800;SDS011;12081;48.614;10.226;2023-04-04T15:53:14;4.50;;;2.63;;
23800;SDS011;12081;48.614;10.226;2023-04-04T15:55:58;4.27;;;2.37;;
23800;SDS011;12081;48.614;10.226;2023-04-04T15:58:42;4.43;;;2.50;;
23800;SDS011;12081;48.614;10.226;2023-04-04T16:01:26;4.97;;;2.60;;
23800;SDS011;12081;48.614;10.226;2023-04-04T16:04:10;3.90;;;2.43;;
23800;SDS011;12081;48.614;10.226;2023-04-04T16:06:55;2.70;;;2.30;;
23800;SDS011;12081;48.614;10.226;2023-04-04T16:09:39;7.13;;;2.50;;
23800;SDS011;12081;48.614;10.226;2023-04-04T16:12:23;4.10;;;2.40;;
23800;SDS011;12081;48.614;10.226;2023-04-04T16:15:07;4.80;;;2.77;;
23800;SDS011;12081;48.614;10.226;2023-04-04T16:17:55;3.83;;;2.27;;
23800;SDS011;12081;48.614;10.226;2023-04-04T16:20:41;3.23;;;2.17;;
23800;SDS011;12081;48.614;10.226;2023-04-04T16:23:25;4.07;;;2.67;;
23800;SDS011;12081;48.614;10.226;2023-04-04T16:26:09;5.93;;;2.50;;
23800;SDS011;12081;48.614;10.226;2023-04-04T16:28:53;3.93;;;2.57;;
23800;SDS011;12081;48.614;10.226;2023-04-04T16:31:37;3.53;;;2.37;;
23800;SDS011;12081;48.614;10.226;2023-04-04T16:34:21;3.97;;;2.40;;
23800;SDS011;12081;48.614;10.226;2023-04-04T16:37:05;4.83;;;2.50;;
23800;SDS011;12081;48.614;10.226;2023-04-04T16:39:49;5.90;;;2.87;;
23800;SDS011;12081;48.614;10.226;2023-04-04T16:42:34;4.03;;;2.60;;
23800;SDS011;12081;48.614;10.226;2023-04-04T16:45:19;5.13;;;2.37;;
23800;SDS011;12081;48.614;10.226;2023-04-04T16:48:04;8.50;;;2.83;;
23800;SDS011;12081;48.614;10.226;2023-04-04T16:50:48;3.57;;;2.00;;
23800;SDS011;12081;48.614;10.226;2023-04-04T16:53:32;4.63;;;2.53;;
23800;SDS011;12081;48.614;10.226;2023-04-04T16:56:16;3.93;;;2.30;;
23800;SDS011;12081;48.614;10.226;2023-04-04T16:59:00;4.17;;;2.30;;
23800;SDS011;12081;48.614;10.226;2023-04-04T17:01:44;3.87;;;2.80;;
23800;SDS011;12081;48.614;10.226;2023-04-04T17:04:31;3.53;;;2.73;;
23800;SDS011;12081;48.614;10.226;2023-04-04T17:07:15;5.50;;;3.03;;
23800;SDS011;12081;48.614;10.226;2023-04-04T17:10:00;3.43;;;2.20;;
23800;SDS011;12081;48.614;10.226;2023-04-04T17:12:44;4.27;;;2.50;;
23800;SDS011;12081;48.614;10.226;2023-04-04T17:15:28;2.70;;;2.23;;
23800;SDS011;12081;48.614;10.226;2023-04-04T17:18:12;3.23;;;2.43;;
23800;SDS011;12081;48.614;10.226;2023-04-04T17:20:56;3.77;;;2.47;;
23800;SDS011;12081;48.614;10.226;2023-04-04T17:23:40;5.87;;;2.80;;
23800;SDS011;12081;48.614;10.226;2023-04-04T17:26:25;4.97;;;2.47;;
23800;SDS011;12081;48.614;10.226;2023-04-04T17:29:09;4.80;;;2.77;;
23800;SDS011;12081;48.614;10.226;2023-04-04T17:31:54;9.10;;;3.10;;
23800;SDS011;12081;48.614;10.226;2023-04-04T17:34:39;3.90;;;2.87;;
23800;SDS011;12081;48.614;10.226;2023-04-04T17:37:24;6.47;;;3.13;;
23800;SDS011;12081;48.614;10.226;2023-04-04T17:40:09;4.33;;;2.80;;
23800;SDS011;12081;48.614;10.226;2023-04-04T17:42:53;4.03;;;2.53;;
23800;SDS011;12081;48.614;10.226;2023-04-04T17:45:39;3.40;;;2.67;;
23800;SDS011;12081;48.614;10.226;2023-04-04T17:48:25;4.13;;;3.00;;
23800;SDS011;12081;48.614;10.226;2023-04-04T17:51:14;6.10;;;3.30;;
23800;SDS011;12081;48.614;10.226;2023-04-04T17:53:59;5.60;;;3.17;;
23800;SDS011;12081;48.614;10.226;2023-04-04T17:56:44;8.73;;;5.27;;
23800;SDS011;12081;48.614;10.226;2023-04-04T17:59:29;8.17;;;5.07;;
23800;SDS011;12081;48.614;10.226;2023-04-04T18:02:13;12.87;;;5.90;;
23800;SDS011;12081;48.614;10.226;2023-04-04T18:04:58;13.67;;;8.37;;
23800;SDS011;12081;48.614;10.226;2023-04-04T18:07:42;27.17;;;14.23;;
23800;SDS011;12081;48.614;10.226;2023-04-04T18:10:26;33.07;;;16.07;;
23800;SDS011;12081;48.614;10.226;2023-04-04T18:13:11;22.50;;;13.87;;
23800;SDS011;12081;48.614;10.226;2023-04-04T18:15:55;9.67;;;5.60;;
23800;SDS011;12081;48.614;10.226;2023-04-04T18:18:39;7.10;;;3.60;;
23800;SDS011;12081;48.614;10.226;2023-04-04T18:21:24;6.53;;;3.60;;
23800;SDS011;12081;48.614;10.226;2023-04-04T18:24:09;5.40;;;4.03;;
23800;SDS011;12081;48.614;10.226;2023-04-04T18:26:54;10.10;;;4.13;;
23800;SDS011;12081;48.614;10.226;2023-04-04T18:29:39;8.60;;;4.40;;
23800;SDS011;12081;48.614;10.226;2023-04-04T18:32:25;10.27;;;5.23;;
23800;SDS011;12081;48.614;10.226;2023-04-04T18:35:10;7.40;;;5.20;;
23800;SDS011;12081;48.614;10.226;2023-04-04T18:37:55;8.30;;;5.17;;
23800;SDS011;12081;48.614;10.226;2023-04-04T18:40:40;13.00;;;5.10;;
23800;SDS011;12081;48.614;10.226;2023-04-04T18:43:27;9.03;;;4.97;;
23800;SDS011;12081;48.614;10.226;2023-04-04T18:46:11;7.73;;;4.77;;
23800;SDS011;12081;48.614;10.226;2023-04-04T18:48:55;6.03;;;4.07;;
23800;SDS011;12081;48.614;10.226;2023-04-04T18:51:39;6.73;;;4.20;;
23800;SDS011;12081;48.614;10.226;2023-04-04T18:54:23;6.87;;;3.90;;
23800;SDS011;12081;48.614;10.226;2023-04-04T18:57:09;7.83;;;4.30;;
23800;SDS011;12081;48.614;10.226;2023-04-04T18:59:54;5.20;;;3.53;;
23800;SDS011;12081;48.614;10.226;2023-04-04T19:02:38;5.50;;;3.40;;
23800;SDS011;12081;48.614;10.226;2023-04-04T19:05:23;4.93;;;3.70;;
23800;SDS011;12081;48.614;10.226;2023-04-04T19:08:09;4.17;;;3.50;;
23800;SDS011;12081;48.614;10.226;2023-04-04T19:10:54;5.13;;;3.23;;
23800;SDS011;12081;48.614;10.226;2023-04-04T19:13:38;5.73;;;3.33;;
23800;SDS011;12081;48.614;10.226;2023-04-04T19:16:22;5.73;;;3.90;;
23800;SDS011;12081;48.614;10.226;2023-04-04T19:19:06;12.90;;;6.00;;
23800;SDS011;12081;48.614;10.226;2023-04-04T19:21:51;13.80;;;8.33;;
23800;SDS011;12081;48.614;10.226;2023-04-04T19:24:35;9.27;;;6.20;;
23800;SDS011;12081;48.614;10.226;2023-04-04T19:27:21;9.17;;;4.83;;
23800;SDS011;12081;48.614;10.226;2023-04-04T19:30:10;5.60;;;4.30;;
23800;SDS011;12081;48.614;10.226;2023-04-04T19:33:19;9.80;;;4.77;;
23800;SDS011;12081;48.614;10.226;2023-04-04T19:36:07;5.70;;;3.87;;
23800;SDS011;12081;48.614;10.226;2023-04-04T19:38:53;6.10;;;4.37;;
23800;SDS011;12081;48.614;10.226;2023-04-04T19:41:38;7.13;;;5.60;;
23800;SDS011;12081;48.614;10.226;2023-04-04T19:44:23;7.70;;;5.50;;
23800;SDS011;12081;48.614;10.226;2023-04-04T19:47:08;9.87;;;5.60;;
23800;SDS011;12081;48.614;10.226;2023-04-04T19:49:53;7.70;;;4.90;;
23800;SDS011;12081;48.614;10.226;2023-04-04T19:52:38;6.57;;;5.00;;
23800;SDS011;12081;48.614;10.226;2023-04-04T19:58:20;7.23;;;5.10;;
23800;SDS011;12081;48.614;10.226;2023-04-04T20:01:05;7.77;;;5.30;;
23800;SDS011;12081;48.614;10.226;2023-04-04T20:03:50;8.27;;;4.80;;
23800;SDS011;12081;48.614;10.226;2023-04-04T20:06:35;9.33;;;5.00;;
23800;SDS011;12081;48.614;10.226;2023-04-04T20:09:29;7.70;;;5.13;;
23800;SDS011;12081;48.614;10.226;2023-04-04T20:12:17;6.87;;;5.47;;
23800;SDS011;12081;48.614;10.226;2023-04-04T20:15:04;9.97;;;6.40;;
23800;SDS011;12081;48.614;10.226;2023-04-04T20:17:58;10.13;;;6.93;;
23800;SDS011;12081;48.614;10.226;2023-04-04T20:21:02;9.23;;;6.57;;
23800;SDS011;12081;48.614;10.226;2023-04-04T20:23:50;15.03;;;8.13;;
23800;SDS011;12081;48.614;10.226;2023-04-04T20:26:49;23.57;;;11.13;;
23800;SDS011;12081;48.614;10.226;2023-04-04T20:29:39;30.23;;;15.63;;
23800;SDS011;12081;48.614;10.226;2023-04-04T20:32:24;26.77;;;14.43;;
23800;SDS011;12081;48.614;10.226;2023-04-04T20:35:23;39.53;;;19.53;;
23800;SDS011;12081;48.614;10.226;2023-04-04T20:38:08;35.93;;;16.60;;
23800;SDS011;12081;48.614;10.226;2023-04-04T20:40:53;37.20;;;17.63;;
23800;SDS011;12081;48.614;10.226;2023-04-04T20:43:37;57.53;;;24.40;;
23800;SDS011;12081;48.614;10.226;2023-04-04T20:46:22;48.97;;;21.33;;
23800;SDS011;12081;48.614;10.226;2023-04-04T20:49:07;48.60;;;20.67;;
23800;SDS011;12081;48.614;10.226;2023-04-04T20:51:52;39.27;;;16.67;;
23800;SDS011;12081;48.614;10.226;2023-04-04T20:54:36;28.03;;;14.27;;
23800;SDS011;12081;48.614;10.226;2023-04-04T20:57:22;27.13;;;13.07;;
23800;SDS011;12081;48.614;10.226;2023-04-04T21:06:10;16.77;;;10.00;;
23800;SDS011;12081;48.614;10.226;2023-04-04T21:08:56;12.97;;;8.20;;
23800;SDS011;12081;48.614;10.226;2023-04-04T21:11:40;11.60;;;6.40;;
23800;SDS011;12081;48.614;10.226;2023-04-04T21:14:29;11.63;;;5.93;;
23800;SDS011;12081;48.614;10.226;2023-04-04T21:17:20;13.50;;;7.07;;
23800;SDS011;12081;48.614;10.226;2023-04-04T21:20:07;9.70;;;6.10;;
23800;SDS011;12081;48.614;10.226;2023-04-04T21:22:58;8.03;;;4.97;;
23800;SDS011;12081;48.614;10.226;2023-04-04T21:25:43;7.90;;;4.83;;
23800;SDS011;12081;48.614;10.226;2023-04-04T21:28:28;11.70;;;6.43;;
23800;SDS011;12081;48.614;10.226;2023-04-04T21:31:15;11.03;;;6.67;;
23800;SDS011;12081;48.614;10.226;2023-04-04T21:34:07;11.67;;;7.43;;
23800;SDS011;12081;48.614;10.226;2023-04-04T21:37:00;10.37;;;6.10;;
23800;SDS011;12081;48.614;10.226;2023-04-04T21:39:45;7.03;;;5.27;;
23800;SDS011;12081;48.614;10.226;2023-04-04T21:42:32;13.20;;;7.17;;
23800;SDS011;12081;48.614;10.226;2023-04-04T21:45:16;15.73;;;8.93;;
23800;SDS011;12081;48.614;10.226;2023-04-04T21:48:00;18.13;;;9.67;;
23800;SDS011;12081;48.614;10.226;2023-04-04T21:50:44;19.47;;;10.90;;
23800;SDS011;12081;48.614;10.226;2023-04-04T21:53:28;16.07;;;8.53;;
23800;SDS011;12081;48.614;10.226;2023-04-04T21:56:12;9.70;;;6.80;;
23800;SDS011;12081;48.614;10.226;2023-04-04T21:59:00;9.10;;;5.77;;
23800;SDS011;12081;48.614;10.226;2023-04-04T22:01:46;11.87;;;7.17;;
23800;SDS011;12081;48.614;10.226;2023-04-04T22:04:30;13.07;;;7.57;;
23800;SDS011;12081;48.614;10.226;2023-04-04T22:07:14;12.80;;;7.70;;
23800;SDS011;12081;48.614;10.226;2023-04-04T22:09:59;16.30;;;9.80;;
23800;SDS011;12081;48.614;10.226;2023-04-04T22:12:46;23.00;;;12.63;;
23800;SDS011;12081;48.614;10.226;2023-04-04T22:15:32;25.77;;;14.90;;
23800;SDS011;12081;48.614;10.226;2023-04-04T22:18:16;23.77;;;13.70;;
23800;SDS011;12081;48.614;10.226;2023-04-04T22:21:00;27.40;;;14.93;;
23800;SDS011;12081;48.614;10.226;2023-04-04T22:23:49;28.13;;;16.20;;
23800;SDS011;12081;48.614;10.226;2023-04-04T22:26:36;24.13;;;14.53;;
23800;SDS011;12081;48.614;10.226;2023-04-04T22:29:23;30.33;;;16.63;;
23800;SDS011;12081;48.614;10.226;2023-04-04T22:32:07;25.83;;;13.17;;
23800;SDS011;12081;48.614;10.226;2023-04-04T22:34:51;27.80;;;13.03;;
23800;SDS011;12081;48.614;10.226;2023-04-04T22:37:36;26.40;;;14.13;;
23800;SDS011;12081;48.614;10.226;2023-04-04T22:40:21;30.63;;;14.80;;
23800;SDS011;12081;48.614;10.226;2023-04-04T22:43:05;29.37;;;15.43;;